createdAt,value
2019-01-25T00:01:21.839Z,7.87
2019-01-25T00:03:28.484Z,7.42
2019-01-25T00:05:39.256Z,8.50
2019-01-25T00:07:48.613Z,8.00
2019-01-25T00:09:58.681Z,9.03
2019-01-25T00:12:09.275Z,10.10
2019-01-25T00:14:21.038Z,8.03
2019-01-25T00:16:27.355Z,9.35
2019-01-25T00:18:33.105Z,8.60
2019-01-25T00:20:41.968Z,8.25
2019-01-25T00:22:52.914Z,9.10
2019-01-25T00:25:00.016Z,7.70
2019-01-25T00:27:14.085Z,7.78
2019-01-25T00:29:20.329Z,8.45
2019-01-25T00:31:26.051Z,8.55
2019-01-25T00:33:33.609Z,7.70
2019-01-25T00:35:40.864Z,8.70
2019-01-25T00:37:47.060Z,7.65
2019-01-25T00:40:06.352Z,8.23
2019-01-25T00:56:51.240Z,7.60
2019-01-25T00:58:57.901Z,7.95
2019-01-25T01:01:03.944Z,7.65
2019-01-25T01:03:10.058Z,7.40
2019-01-25T01:05:19.797Z,8.48
2019-01-25T01:07:26.458Z,7.95
2019-01-25T01:09:32.366Z,9.65
2019-01-25T01:11:38.482Z,8.95
2019-01-25T01:13:44.241Z,8.83
2019-01-25T01:15:50.959Z,8.18
2019-01-25T01:17:59.511Z,8.83
2019-01-25T01:20:16.513Z,8.20
2019-01-25T01:22:22.278Z,8.55
2019-01-25T01:24:34.389Z,8.78
2019-01-25T01:26:41.971Z,7.45
2019-01-25T01:28:50.526Z,7.97
2019-01-25T01:31:00.283Z,7.72
2019-01-25T01:33:06.180Z,9.58
2019-01-25T01:35:14.717Z,8.93
2019-01-25T01:37:21.643Z,7.83
2019-01-25T01:39:27.606Z,7.08
2019-01-25T01:41:33.365Z,7.45
2019-01-25T01:43:39.562Z,6.60
2019-01-25T01:45:45.502Z,9.05
2019-01-25T01:47:55.758Z,7.60
2019-01-25T01:50:01.951Z,10.93
2019-01-25T01:52:09.423Z,9.33
2019-01-25T01:54:15.159Z,8.30
2019-01-25T01:56:21.187Z,9.03
2019-01-25T01:58:27.629Z,9.15
2019-01-25T02:00:33.073Z,8.33
2019-01-25T02:02:41.223Z,11.10
2019-01-25T02:04:47.669Z,9.98
2019-01-25T02:06:53.204Z,10.00
2019-01-25T02:08:58.684Z,10.90
2019-01-25T02:11:04.500Z,9.70
2019-01-25T02:13:10.000Z,6.00
2019-01-25T02:15:16.958Z,8.65
2019-01-25T02:17:23.160Z,8.33
2019-01-25T02:19:28.742Z,8.18
2019-01-25T02:21:35.740Z,9.08
2019-01-25T02:23:41.505Z,7.87
2019-01-25T02:25:47.267Z,8.10
2019-01-25T02:27:53.152Z,8.95
2019-01-25T02:29:58.708Z,10.50
2019-01-25T02:32:04.682Z,11.28
2019-01-25T02:34:17.903Z,7.90
2019-01-25T02:36:23.701Z,8.00
2019-01-25T02:38:29.364Z,8.33
2019-01-25T02:40:39.257Z,7.22
2019-01-25T02:42:42.262Z,7.65
2019-01-25T02:44:49.279Z,8.28
2019-01-25T02:46:54.866Z,8.28
2019-01-25T02:49:00.541Z,8.90
2019-01-25T02:51:08.177Z,8.98
2019-01-25T02:53:13.577Z,8.10
2019-01-25T02:55:19.201Z,9.38
2019-01-25T02:57:26.515Z,7.55
2019-01-25T02:59:35.106Z,7.47
2019-01-25T03:01:40.647Z,7.08
2019-01-25T03:03:46.291Z,6.20
2019-01-25T03:05:52.035Z,6.97
2019-01-25T03:07:57.520Z,6.70
2019-01-25T03:10:03.086Z,6.42
2019-01-25T03:12:14.959Z,6.78
2019-01-25T03:14:20.649Z,6.10
2019-01-25T03:16:26.158Z,6.65
2019-01-25T03:18:31.977Z,7.22
2019-01-25T03:20:37.423Z,7.60
2019-01-25T03:22:43.074Z,5.80
2019-01-25T03:24:48.755Z,7.45
2019-01-25T03:29:05.672Z,6.20
2019-01-25T03:31:11.336Z,7.40
2019-01-25T03:33:17.876Z,5.65
2019-01-25T03:35:25.661Z,6.37
2019-01-25T03:37:31.305Z,7.05
2019-01-25T03:39:37.078Z,7.55
2019-01-25T03:41:42.802Z,6.42
2019-01-25T03:43:54.749Z,6.22
2019-01-25T03:46:00.518Z,6.17
2019-01-25T03:48:08.097Z,6.53
2019-01-25T03:50:16.298Z,7.58
2019-01-25T03:52:21.940Z,5.62
2019-01-25T03:54:27.692Z,7.58
2019-01-25T03:56:37.705Z,6.00
2019-01-25T03:58:43.878Z,7.15
2019-01-25T04:00:49.519Z,6.05
2019-01-25T04:02:55.681Z,6.08
2019-01-25T04:05:03.263Z,5.55
2019-01-25T04:07:07.327Z,6.60
2019-01-25T04:09:14.393Z,7.85
2019-01-25T04:11:20.061Z,8.23
2019-01-25T04:13:25.637Z,7.90
2019-01-25T04:15:38.372Z,7.03
2019-01-25T04:17:44.881Z,7.40
2019-01-25T04:19:51.434Z,6.10
2019-01-25T04:21:59.112Z,7.42
2019-01-25T04:24:07.184Z,7.25
2019-01-25T04:26:12.966Z,7.40
2019-01-25T04:28:18.405Z,7.90
2019-01-25T04:30:26.274Z,5.95
2019-01-25T04:32:31.798Z,7.15
2019-01-25T04:34:37.477Z,8.93
2019-01-25T04:36:42.982Z,7.47
2019-01-25T04:38:50.046Z,8.40
2019-01-25T04:40:55.597Z,6.60
2019-01-25T04:43:01.455Z,7.30
2019-01-25T04:45:08.686Z,6.75
2019-01-25T04:47:28.926Z,8.85
2019-01-25T04:49:37.010Z,7.97
2019-01-25T04:51:42.989Z,6.95
2019-01-25T04:53:51.042Z,7.30
2019-01-25T04:55:58.290Z,6.60
2019-01-25T04:58:12.551Z,9.00
2019-01-25T05:00:21.439Z,8.95
2019-01-25T05:02:27.107Z,8.05
2019-01-25T05:04:36.513Z,7.35
2019-01-25T05:06:43.051Z,7.87
2019-01-25T05:08:48.622Z,6.65
2019-01-25T05:10:54.237Z,7.62
2019-01-25T05:12:59.772Z,7.30
2019-01-25T05:15:06.083Z,8.83
2019-01-25T05:17:11.909Z,6.60
2019-01-25T05:19:17.877Z,7.92
2019-01-25T05:21:24.999Z,7.92
2019-01-25T05:23:30.447Z,7.87
2019-01-25T05:25:41.851Z,7.62
2019-01-25T05:27:48.554Z,8.05
2019-01-25T05:29:55.615Z,6.75
2019-01-25T05:32:05.840Z,7.08
2019-01-25T05:34:12.504Z,8.28
2019-01-25T05:36:19.516Z,8.50
2019-01-25T05:38:25.491Z,8.10
2019-01-25T05:40:31.103Z,8.13
2019-01-25T05:42:46.123Z,9.00
2019-01-25T05:44:51.869Z,10.38
2019-01-25T05:46:57.582Z,11.75
2019-01-25T05:49:04.326Z,11.05
2019-01-25T05:51:09.898Z,11.70
2019-01-25T05:53:15.761Z,11.90
2019-01-25T05:55:24.493Z,12.95
2019-01-25T05:57:30.514Z,11.85
2019-01-25T05:59:35.978Z,11.65
2019-01-25T06:01:46.424Z,11.93
2019-01-25T06:03:52.058Z,13.80
2019-01-25T06:06:02.990Z,15.15
2019-01-25T06:08:43.578Z,16.70
2019-01-25T06:10:44.013Z,13.60
2019-01-25T06:15:00.846Z,13.22
2019-01-25T06:17:06.386Z,15.18
2019-01-25T06:19:11.807Z,16.60
2019-01-25T06:21:17.361Z,15.30
2019-01-25T06:23:24.082Z,12.55
2019-01-25T06:25:30.357Z,16.10
2019-01-25T06:27:39.597Z,14.63
2019-01-25T06:29:51.131Z,15.65
2019-01-25T06:31:56.614Z,14.53
2019-01-25T06:34:02.860Z,14.53
2019-01-25T06:36:12.447Z,14.85
2019-01-25T06:38:19.017Z,13.93
2019-01-25T06:40:24.686Z,16.50
2019-01-25T06:42:30.194Z,15.35
2019-01-25T06:44:36.262Z,15.60
2019-01-25T06:46:42.055Z,16.30
2019-01-25T06:48:50.952Z,17.07
2019-01-25T06:50:56.681Z,14.03
2019-01-25T06:53:04.586Z,14.90
2019-01-25T06:55:17.474Z,16.48
2019-01-25T06:57:32.005Z,16.45
2019-01-25T06:59:38.798Z,16.45
2019-01-25T07:01:57.117Z,17.55
2019-01-25T07:04:02.857Z,16.75
2019-01-25T07:06:08.378Z,15.90
2019-01-25T07:08:17.182Z,20.12
2019-01-25T07:10:23.134Z,20.88
2019-01-25T07:12:28.766Z,18.20
2019-01-25T07:14:34.562Z,21.12
2019-01-25T07:16:40.199Z,20.48
2019-01-25T07:18:45.815Z,20.30
2019-01-25T07:20:53.369Z,21.35
2019-01-25T07:22:58.886Z,23.45
2019-01-25T07:25:05.734Z,23.52
2019-01-25T07:27:11.387Z,26.55
2019-01-25T07:29:16.984Z,24.47
2019-01-25T07:31:25.035Z,26.95
2019-01-25T07:33:30.557Z,27.07
2019-01-25T07:35:36.505Z,26.95
2019-01-25T07:37:42.073Z,25.30
2019-01-25T07:42:02.460Z,25.43
2019-01-25T07:44:15.737Z,24.65
2019-01-25T07:46:28.491Z,25.00
2019-01-25T07:48:34.397Z,25.68
2019-01-25T07:50:39.901Z,26.35
2019-01-25T07:52:45.894Z,23.32
2019-01-25T07:54:52.808Z,27.75
2019-01-25T07:56:58.382Z,24.40
2019-01-25T08:01:25.342Z,27.13
2019-01-25T08:03:30.831Z,25.45
2019-01-25T08:05:36.406Z,27.05
2019-01-25T08:07:42.437Z,24.05
2019-01-25T08:09:49.902Z,28.73
2019-01-25T08:11:55.348Z,25.62
2019-01-25T08:14:00.949Z,25.00
2019-01-25T08:16:10.594Z,24.67
2019-01-25T08:18:16.318Z,25.32
2019-01-25T08:20:22.770Z,25.32
2019-01-25T08:22:29.169Z,26.90
2019-01-25T08:24:34.807Z,24.98
2019-01-25T08:26:40.694Z,27.42
2019-01-25T08:28:46.259Z,26.00
2019-01-25T08:30:51.790Z,27.17
2019-01-25T08:32:57.799Z,27.90
2019-01-25T08:35:03.876Z,22.95
2019-01-25T08:37:12.310Z,26.02
2019-01-25T08:39:20.920Z,27.15
2019-01-25T08:41:29.536Z,24.35
2019-01-25T08:43:35.279Z,26.33
2019-01-25T08:45:40.819Z,26.95
2019-01-25T08:50:24.661Z,27.85
2019-01-25T08:52:30.434Z,28.70
2019-01-25T08:54:35.988Z,27.85
2019-01-25T08:56:41.485Z,31.20
2019-01-25T09:00:59.055Z,33.02
2019-01-25T09:03:05.746Z,34.38
2019-01-25T09:05:12.701Z,32.40
2019-01-25T09:07:18.224Z,34.20
2019-01-25T09:09:23.790Z,34.00
2019-01-25T09:11:29.141Z,34.97
2019-01-25T09:13:34.387Z,35.20
2019-01-25T09:15:41.132Z,33.83
2019-01-25T09:17:46.332Z,32.30
2019-01-25T09:19:51.826Z,35.73
2019-01-25T09:21:57.230Z,33.90
2019-01-25T09:24:03.613Z,32.90
2019-01-25T09:26:09.024Z,33.83
2019-01-25T09:28:20.669Z,34.27
2019-01-25T09:30:25.918Z,32.90
2019-01-25T09:32:31.234Z,34.30
2019-01-25T09:34:36.563Z,34.07
2019-01-25T09:36:42.464Z,34.20
2019-01-25T09:38:48.775Z,33.70
2019-01-25T09:40:56.863Z,34.07
2019-01-25T09:43:02.073Z,32.87
2019-01-25T09:45:08.570Z,30.60
2019-01-25T09:47:16.002Z,31.07
2019-01-25T09:49:21.777Z,32.10
2019-01-25T09:51:27.437Z,31.80
2019-01-25T09:53:34.462Z,30.43
2019-01-25T09:55:40.804Z,33.13
2019-01-25T09:57:46.805Z,30.60
2019-01-25T09:59:53.229Z,30.87
2019-01-25T10:01:58.397Z,31.00
2019-01-25T10:04:03.909Z,32.43
2019-01-25T10:06:21.271Z,29.40
2019-01-25T10:08:26.879Z,29.63
2019-01-25T10:10:33.066Z,30.00
2019-01-25T10:12:43.297Z,33.83
2019-01-25T10:14:45.608Z,31.07
2019-01-25T10:16:51.145Z,31.13
2019-01-25T10:18:56.359Z,31.30
2019-01-25T10:21:01.634Z,30.37
2019-01-25T10:23:07.023Z,30.60
2019-01-25T10:25:13.739Z,29.60
2019-01-25T10:27:20.149Z,30.40
2019-01-25T10:29:25.342Z,30.00
2019-01-25T10:31:31.469Z,32.17
2019-01-25T10:33:36.823Z,29.90
2019-01-25T10:35:42.329Z,29.33
2019-01-25T10:37:50.207Z,29.30
2019-01-25T10:39:55.690Z,29.57
2019-01-25T10:42:02.356Z,33.10
2019-01-25T10:44:10.665Z,31.00
2019-01-25T10:46:15.885Z,31.10
2019-01-25T10:48:21.982Z,31.83
2019-01-25T10:50:29.146Z,33.00
2019-01-25T10:52:34.854Z,33.90
2019-01-25T10:54:40.108Z,35.27
2019-01-25T10:56:45.437Z,32.37
2019-01-25T10:58:50.863Z,32.73
2019-01-25T11:00:56.278Z,32.30
2019-01-25T11:03:09.155Z,31.93
2019-01-25T11:05:17.913Z,31.60
2019-01-25T11:07:23.168Z,31.13
2019-01-25T11:09:31.609Z,31.93
2019-01-25T11:11:36.816Z,30.87
2019-01-25T11:13:42.442Z,29.07
2019-01-25T11:15:47.642Z,29.10
2019-01-25T11:17:52.870Z,29.43
2019-01-25T11:19:58.311Z,30.95
2019-01-25T11:22:04.199Z,30.20
2019-01-25T11:24:10.863Z,29.15
2019-01-25T11:26:16.301Z,30.15
2019-01-25T11:28:28.049Z,30.10
2019-01-25T11:30:33.233Z,28.73
2019-01-25T11:32:39.742Z,30.47
2019-01-25T11:34:51.266Z,33.42
2019-01-25T11:36:57.797Z,30.10
2019-01-25T11:39:04.513Z,30.20
2019-01-25T11:41:16.299Z,28.75
2019-01-25T11:43:22.766Z,29.90
2019-01-25T11:45:28.799Z,33.33
2019-01-25T11:47:35.300Z,33.83
2019-01-25T11:49:41.214Z,33.58
2019-01-25T11:51:47.112Z,33.85
2019-01-25T11:53:52.690Z,31.85
2019-01-25T11:55:58.150Z,29.80
2019-01-25T11:58:03.918Z,31.40
2019-01-25T12:02:43.038Z,32.10
2019-01-25T12:07:25.732Z,29.55
2019-01-25T12:09:31.409Z,29.05
2019-01-25T12:11:37.436Z,28.75
2019-01-25T12:13:43.171Z,28.60
2019-01-25T12:15:51.411Z,28.00
2019-01-25T12:17:57.078Z,25.60
2019-01-25T12:20:02.793Z,27.17
2019-01-25T12:22:08.298Z,27.70
2019-01-25T12:24:14.577Z,29.07
2019-01-25T12:26:20.278Z,26.17
2019-01-25T12:28:26.170Z,22.80
2019-01-25T12:30:37.735Z,23.40
2019-01-25T12:32:42.531Z,22.87
2019-01-25T12:34:48.893Z,25.70
2019-01-25T12:36:54.718Z,22.62
2019-01-25T12:39:00.512Z,24.12
2019-01-25T12:41:06.330Z,22.17
2019-01-25T12:43:12.570Z,24.35
2019-01-25T12:47:39.294Z,21.40
2019-01-25T12:49:46.609Z,20.90
2019-01-25T12:51:58.602Z,20.68
2019-01-25T12:54:04.371Z,21.27
2019-01-25T12:56:10.910Z,19.80
2019-01-25T12:58:16.434Z,21.87
2019-01-25T13:00:26.027Z,23.12
2019-01-25T13:02:31.850Z,23.02
2019-01-25T13:04:37.298Z,23.30
2019-01-25T13:06:42.832Z,23.05
2019-01-25T13:08:50.312Z,21.97
2019-01-25T13:10:55.482Z,23.30
2019-01-25T13:13:01.432Z,23.50
2019-01-25T13:15:11.639Z,22.90
2019-01-25T13:17:17.033Z,22.47
2019-01-25T13:19:22.465Z,20.60
2019-01-25T13:21:27.915Z,16.50
2019-01-25T13:23:33.582Z,11.57
2019-01-25T13:25:39.002Z,10.93
2019-01-25T13:27:44.538Z,10.30
2019-01-25T13:32:22.779Z,10.70
2019-01-25T13:34:40.150Z,10.28
2019-01-25T13:36:57.025Z,9.25
2019-01-25T13:39:08.148Z,9.30
2019-01-25T13:41:16.016Z,9.40
2019-01-25T13:43:25.761Z,10.93
2019-01-25T13:45:34.908Z,8.53
2019-01-25T13:47:47.276Z,11.22
2019-01-25T13:49:53.169Z,9.45
2019-01-25T13:51:58.739Z,12.73
2019-01-25T13:54:11.818Z,9.98
2019-01-25T13:56:18.266Z,9.73
2019-01-25T13:58:23.738Z,9.00
2019-01-25T14:00:42.015Z,9.00
2019-01-25T14:02:47.555Z,8.23
2019-01-25T14:04:53.459Z,10.35
2019-01-25T14:06:59.405Z,10.30
2019-01-25T14:09:07.588Z,10.65
2019-01-25T14:11:13.837Z,10.20
2019-01-25T14:13:26.649Z,10.00
2019-01-25T14:15:32.382Z,9.43
2019-01-25T14:17:38.237Z,9.58
2019-01-25T14:19:44.470Z,9.68
2019-01-25T14:21:50.067Z,11.08
2019-01-25T14:23:55.643Z,9.58
2019-01-25T14:26:04.469Z,10.35
2019-01-25T14:28:09.908Z,9.30
2019-01-25T14:30:19.105Z,10.43
2019-01-25T14:32:24.559Z,9.03
2019-01-25T14:34:30.198Z,7.55
2019-01-25T14:36:35.910Z,9.05
2019-01-25T14:38:43.278Z,8.95
2019-01-25T14:40:48.897Z,8.93
2019-01-25T14:42:55.202Z,9.45
2019-01-25T14:45:01.455Z,9.18
2019-01-25T14:47:07.181Z,9.30
2019-01-25T14:49:12.810Z,7.90
2019-01-25T14:51:24.798Z,9.15
2019-01-25T14:53:30.675Z,8.95
2019-01-25T14:55:36.224Z,8.85
2019-01-25T14:57:44.272Z,8.95
2019-01-25T14:59:49.793Z,6.90
2019-01-25T15:01:55.317Z,7.55
2019-01-25T15:04:00.889Z,8.73
2019-01-25T15:06:07.989Z,8.48
2019-01-25T15:08:13.602Z,8.18
2019-01-25T15:10:21.380Z,9.20
2019-01-25T15:12:26.898Z,8.60
2019-01-25T15:14:32.621Z,8.10
2019-01-25T15:16:38.213Z,9.08
2019-01-25T15:18:43.718Z,7.42
2019-01-25T15:20:49.133Z,8.43
2019-01-25T15:22:54.862Z,9.70
2019-01-25T15:25:02.670Z,7.53
2019-01-25T15:27:08.403Z,7.97
2019-01-25T15:29:16.884Z,7.90
2019-01-25T15:31:22.729Z,8.50
2019-01-25T15:33:28.251Z,9.10
2019-01-25T15:35:35.761Z,8.68
2019-01-25T15:37:44.403Z,6.65
2019-01-25T15:39:50.237Z,7.17
2019-01-25T15:41:59.754Z,7.62
2019-01-25T15:44:10.012Z,9.88
2019-01-25T15:46:12.901Z,6.60
2019-01-25T15:48:18.749Z,7.60
2019-01-25T15:52:59.479Z,7.00
2019-01-25T15:55:12.566Z,8.88
2019-01-25T15:57:52.434Z,9.98
2019-01-25T16:00:37.698Z,7.60
2019-01-25T16:07:11.693Z,7.08
2019-01-25T16:09:23.660Z,7.42
2019-01-25T16:11:32.742Z,7.50
2019-01-25T16:13:38.912Z,8.28
2019-01-25T16:15:47.979Z,8.48
2019-01-25T16:17:57.957Z,7.55
2019-01-25T16:20:05.525Z,7.85
2019-01-25T16:22:12.269Z,8.80
2019-01-25T16:24:18.212Z,6.92
2019-01-25T16:26:30.048Z,8.60
2019-01-25T16:28:35.753Z,9.45
2019-01-25T16:30:41.334Z,8.28
2019-01-25T16:32:53.029Z,11.00
2019-01-25T16:34:58.973Z,9.00
2019-01-25T16:37:04.677Z,9.03
2019-01-25T16:39:12.835Z,7.85
2019-01-25T16:43:29.655Z,7.53
2019-01-25T16:45:43.075Z,9.53
2019-01-25T16:47:48.785Z,8.50
2019-01-25T16:49:54.503Z,8.30
2019-01-25T16:52:00.099Z,7.65
2019-01-25T16:56:17.278Z,7.50
2019-01-25T16:58:23.503Z,8.20
2019-01-25T17:00:31.582Z,10.38
2019-01-25T17:02:37.030Z,8.95
2019-01-25T17:04:49.701Z,8.58
2019-01-25T17:06:55.845Z,7.80
2019-01-25T17:09:01.337Z,7.60
2019-01-25T17:11:07.915Z,9.23
2019-01-25T17:13:13.770Z,9.53
2019-01-25T17:15:20.697Z,7.22
2019-01-25T17:17:26.722Z,6.70
2019-01-25T17:19:32.780Z,8.88
2019-01-25T17:21:38.456Z,9.60
2019-01-25T17:23:52.161Z,11.93
2019-01-25T17:25:57.756Z,9.58
2019-01-25T17:28:04.501Z,9.28
2019-01-25T17:30:26.214Z,8.63
2019-01-25T17:32:37.431Z,9.15
2019-01-25T17:34:43.146Z,9.85
2019-01-25T17:36:48.793Z,10.63
2019-01-25T17:38:54.214Z,11.05
2019-01-25T17:40:59.742Z,13.13
2019-01-25T17:43:06.001Z,11.18
2019-01-25T17:45:12.477Z,13.53
2019-01-25T17:47:18.527Z,13.95
2019-01-25T17:49:24.537Z,12.50
2019-01-25T17:51:30.165Z,12.85
2019-01-25T17:53:36.231Z,11.55
2019-01-25T17:55:42.166Z,13.80
2019-01-25T17:57:48.067Z,13.50
2019-01-25T17:59:56.444Z,15.70
2019-01-25T18:02:02.023Z,18.48
2019-01-25T18:04:08.245Z,18.25
2019-01-25T18:06:14.096Z,18.73
2019-01-25T18:08:19.849Z,19.10
2019-01-25T18:10:25.474Z,18.32
2019-01-25T18:12:31.323Z,17.02
2019-01-25T18:14:37.185Z,13.25
2019-01-25T18:16:43.238Z,14.18
2019-01-25T18:18:55.109Z,9.93
2019-01-25T18:21:02.637Z,8.50
2019-01-25T18:26:01.558Z,10.75
2019-01-25T18:35:29.750Z,9.00
2019-01-25T18:37:37.270Z,9.40
2019-01-25T18:39:45.151Z,9.95
2019-01-25T18:42:00.135Z,7.83
2019-01-25T18:44:16.811Z,7.05
2019-01-25T18:48:32.341Z,7.45
2019-01-25T18:51:32.054Z,7.85
2019-01-25T18:54:25.163Z,6.70
2019-01-25T19:12:03.975Z,5.47
2019-01-25T19:18:08.341Z,8.23
2019-01-25T19:20:27.924Z,7.92
2019-01-25T19:22:38.423Z,7.47
2019-01-25T19:33:00.205Z,7.45
2019-01-25T19:39:11.359Z,5.80
2019-01-25T19:45:52.726Z,6.90
2019-01-25T19:47:58.483Z,5.58
2019-01-25T19:53:09.137Z,8.60
2019-01-25T19:55:23.891Z,7.53
2019-01-25T19:59:51.248Z,8.18
2019-01-25T20:01:57.283Z,6.58
2019-01-25T20:04:03.725Z,7.70
2019-01-25T20:06:09.310Z,9.08
2019-01-25T20:08:20.858Z,8.40
2019-01-25T20:10:26.772Z,6.83
2019-01-25T20:12:32.905Z,6.30
2019-01-25T20:14:44.644Z,8.65
2019-01-25T20:16:50.660Z,7.87
2019-01-25T20:18:56.180Z,7.40
2019-01-25T20:21:01.781Z,6.97
2019-01-25T20:23:07.996Z,6.25
2019-01-25T20:25:20.274Z,6.33
2019-01-25T20:27:26.318Z,8.35
2019-01-25T20:29:31.945Z,8.15
2019-01-25T20:31:40.537Z,6.60
2019-01-25T20:36:10.759Z,7.80
2019-01-25T20:38:18.610Z,6.65
2019-01-25T20:40:24.157Z,6.42
2019-01-25T20:42:32.880Z,4.90
2019-01-25T20:44:38.825Z,6.47
2019-01-25T20:46:44.559Z,5.30
2019-01-25T20:48:50.400Z,6.33
2019-01-25T20:50:56.087Z,4.10
2019-01-25T20:53:02.757Z,8.35
2019-01-25T20:55:13.130Z,7.28
2019-01-25T20:57:20.329Z,7.10
2019-01-25T20:59:28.118Z,8.70
2019-01-25T21:01:34.168Z,6.47
2019-01-25T21:03:41.765Z,5.97
2019-01-25T21:05:48.036Z,6.78
2019-01-25T21:07:53.730Z,8.03
2019-01-25T21:10:00.338Z,6.60
2019-01-25T21:12:06.040Z,6.83
2019-01-25T21:14:13.286Z,6.60
2019-01-25T21:16:20.130Z,6.50
2019-01-25T21:18:25.882Z,6.78
2019-01-25T21:20:34.258Z,7.30
2019-01-25T21:22:42.842Z,7.50
2019-01-25T21:24:48.822Z,6.65
2019-01-25T21:26:55.804Z,6.75
2019-01-25T21:31:16.646Z,6.95
2019-01-25T21:33:26.767Z,3.47
2019-01-25T21:35:37.540Z,4.85
2019-01-25T21:37:47.496Z,5.37
2019-01-25T21:39:58.961Z,6.50
2019-01-25T21:42:05.305Z,7.83
2019-01-25T21:46:23.299Z,5.90
2019-01-25T21:48:30.678Z,6.53
2019-01-25T21:50:45.221Z,7.75
2019-01-25T21:52:47.872Z,6.33
2019-01-25T21:54:53.837Z,6.60
2019-01-25T21:57:05.658Z,8.35
2019-01-25T21:59:11.844Z,7.45
2019-01-25T22:01:21.749Z,6.97
2019-01-25T22:05:41.405Z,5.00
2019-01-25T22:07:48.326Z,6.45
2019-01-25T22:09:54.659Z,5.62
2019-01-25T22:12:00.571Z,5.47
2019-01-25T22:14:07.764Z,5.67
2019-01-25T22:16:19.085Z,5.08
2019-01-25T22:18:24.948Z,5.97
2019-01-25T22:20:32.847Z,6.90
2019-01-25T22:22:41.106Z,7.28
2019-01-25T22:24:47.107Z,7.72
2019-01-25T22:26:53.472Z,6.00
2019-01-25T22:29:01.973Z,4.03
2019-01-25T22:31:09.817Z,5.30
2019-01-25T22:33:21.564Z,6.08
2019-01-25T22:35:28.135Z,5.53
2019-01-25T22:37:36.174Z,4.20
2019-01-25T22:39:42.520Z,4.25
2019-01-25T22:41:51.484Z,5.22
2019-01-25T22:43:57.133Z,5.10
2019-01-25T22:46:04.010Z,6.40
2019-01-25T22:48:09.897Z,5.60
2019-01-25T22:50:18.590Z,4.35
2019-01-25T22:52:24.421Z,5.15
2019-01-25T22:56:41.502Z,5.75
2019-01-25T22:58:51.053Z,5.85
2019-01-25T23:01:28.497Z,6.50
2019-01-25T23:04:21.206Z,6.55
2019-01-25T23:06:47.713Z,5.00
2019-01-25T23:08:53.162Z,4.85
2019-01-25T23:10:58.815Z,6.67
2019-01-25T23:15:25.558Z,5.10
2019-01-25T23:17:31.134Z,5.85
2019-01-25T23:19:36.961Z,8.80
2019-01-25T23:21:42.604Z,5.60
2019-01-25T23:23:55.745Z,6.20
2019-01-25T23:26:01.330Z,5.83
2019-01-25T23:28:06.900Z,4.58
2019-01-25T23:30:14.883Z,5.40
2019-01-25T23:32:20.397Z,7.05
2019-01-25T23:34:26.212Z,6.33
2019-01-25T23:36:31.973Z,5.55
2019-01-25T23:38:37.617Z,3.47
2019-01-25T23:40:43.200Z,4.80
2019-01-25T23:42:49.218Z,5.12
2019-01-25T23:44:55.451Z,5.85
2019-01-25T23:47:01.430Z,6.40
2019-01-25T23:49:13.156Z,4.85
2019-01-25T23:51:22.891Z,4.85
2019-01-25T23:53:26.129Z,3.37
2019-01-25T23:55:32.010Z,4.92
2019-01-25T23:57:37.693Z,4.42
2019-01-25T23:59:45.379Z,4.42
